Time;durP1;ratioP1;P1;durP2;ratioP2;P2;SDS_P1;SDS_P2;PMS_P1;PMS_P2;Temp;Humidity;BMP_temperature;BMP_pressure;BME280_temperature;BME280_humidity;BME280_pressure;Samples;Min_cycle;Max_cycle;Signal;HPM_P1;HPM_P2
2021/10/11 06:55:55;;;;;;;38.88;18.70;;;;;;;4.98;74.71;99871.13;2617240;39;20429;-68
2021/10/11 06:58:24;;;;;;;30.27;18.25;;;;;;;5.01;74.39;99873.47;2618487;54;20033;-69
2021/10/11 07:00:54;;;;;;;37.58;21.17;;;;;;;5.06;74.12;99876.56;2618574;54;20030;-69
2021/10/11 07:03:26;;;;;;;38.60;19.15;;;;;;;5.14;73.96;99871.50;2618243;39;20445;-70
2021/10/11 07:06:00;;;;;;;31.73;19.38;;;;;;;5.31;74.15;99869.22;2618464;54;20023;-70
2021/10/11 07:08:30;;;;;;;31.27;18.40;;;;;;;5.43;73.83;99873.38;2619088;54;20073;-67
2021/10/11 07:11:04;;;;;;;33.10;19.50;;;;;;;5.57;73.54;99872.16;2623617;39;20399;-68
2021/10/11 07:13:34;;;;;;;25.92;16.77;;;;;;;5.58;73.15;99879.06;2624018;54;20057;-68
2021/10/11 07:16:05;;;;;;;24.15;16.88;;;;;;;5.69;73.14;99877.16;2623488;39;20474;-69
2021/10/11 07:18:37;;;;;;;26.27;17.27;;;;;;;5.81;73.06;99866.56;2623103;39;20437;-70
2021/10/11 07:21:09;;;;;;;27.73;18.88;;;;;;;5.92;72.43;99872.56;2623706;54;20034;-68
2021/10/11 07:23:39;;;;;;;29.08;17.65;;;;;;;6.07;72.08;99883.47;2624488;54;20035;-68
2021/10/11 07:26:11;;;;;;;25.88;16.92;;;;;;;6.11;71.90;99882.22;2624493;54;20033;-68
2021/10/11 07:28:41;;;;;;;26.42;17.05;;;;;;;6.19;71.80;99892.03;2624961;54;20041;-68
2021/10/11 07:31:10;;;;;;;22.70;15.90;;;;;;;6.32;71.73;99889.94;2623884;54;20049;-68
2021/10/11 07:33:40;;;;;;;22.70;15.45;;;;;;;6.39;71.44;99893.69;2623456;54;20033;-68
2021/10/11 07:36:10;;;;;;;22.30;16.17;;;;;;;6.47;70.87;99893.00;2623290;54;20051;-67
2021/10/11 07:38:40;;;;;;;21.17;15.23;;;;;;;6.51;70.48;99888.28;2623788;54;20038;-68
2021/10/11 07:41:12;;;;;;;25.20;16.25;;;;;;;6.57;70.29;99890.34;2622451;54;20031;-68
2021/10/11 07:43:42;;;;;;;27.70;18.48;;;;;;;6.66;70.20;99889.53;2622290;54;20026;-68
2021/10/11 07:46:11;;;;;;;23.80;17.02;;;;;;;6.77;69.82;99894.59;2623076;54;20050;-67
2021/10/11 07:48:41;;;;;;;22.17;15.13;;;;;;;6.73;70.16;99895.03;2625871;39;20476;-68
2021/10/11 07:51:12;;;;;;;22.95;16.00;;;;;;;6.75;70.51;99886.03;2622623;54;20034;-68
2021/10/11 07:53:46;;;;;;;17.45;13.93;;;;;;;6.77;70.55;99894.59;2622739;54;20038;-68
2021/10/11 07:56:18;;;;;;;17.35;13.35;;;;;;;6.84;70.02;99890.44;2621964;54;20035;-69
2021/10/11 07:58:48;;;;;;;17.95;13.73;;;;;;;6.91;69.97;99890.72;2622338;54;20023;-69
2021/10/11 08:01:17;;;;;;;19.33;13.98;;;;;;;6.97;70.20;99881.41;2621902;54;20039;-67
2021/10/11 08:03:47;;;;;;;24.35;14.93;;;;;;;7.07;69.98;99884.88;2622844;54;20038;-68
2021/10/11 08:06:17;;;;;;;23.70;13.52;;;;;;;7.06;69.82;99891.06;2622144;54;20041;-69
2021/10/11 08:08:47;;;;;;;17.45;14.32;;;;;;;6.81;69.82;99879.38;2621236;54;20042;-68
2021/10/11 08:11:23;;;;;;;19.95;14.57;;;;;;;6.84;70.59;99881.75;2617467;47;20138;-69
2021/10/11 08:13:53;;;;;;;19.70;13.70;;;;;;;6.85;70.66;99881.59;2618283;54;20565;-69
2021/10/11 08:16:22;;;;;;;19.45;14.07;;;;;;;6.93;69.59;99878.25;2618377;47;20070;-69
2021/10/11 08:18:54;;;;;;;20.00;14.02;;;;;;;6.90;70.15;99879.38;2618825;54;20033;-69
2021/10/11 08:21:24;;;;;;;18.40;13.95;;;;;;;6.89;69.79;99879.50;2618836;54;20045;-68
2021/10/11 08:23:54;;;;;;;19.77;13.95;;;;;;;6.89;70.06;99888.22;2619604;54;20030;-68
2021/10/11 08:26:26;;;;;;;17.88;14.10;;;;;;;6.88;70.35;99883.13;2617764;54;20034;-69
2021/10/11 08:28:56;;;;;;;19.98;13.38;;;;;;;6.84;70.52;99887.00;2618907;54;20626;-68
2021/10/11 08:31:26;;;;;;;18.02;14.05;;;;;;;6.85;71.03;99891.28;2618409;54;20030;-67
2021/10/11 08:33:56;;;;;;;22.60;13.15;;;;;;;6.88;70.91;99896.25;2618966;54;20070;-69
2021/10/11 08:36:25;;;;;;;17.48;13.48;;;;;;;6.89;70.96;99903.97;2619251;39;20395;-69
2021/10/11 08:38:55;;;;;;;14.40;12.40;;;;;;;6.97;71.16;99899.81;2619757;54;20063;-69
2021/10/11 08:41:28;;;;;;;19.45;13.88;;;;;;;7.05;71.19;99900.75;2624390;54;20026;-69
2021/10/11 08:43:57;;;;;;;20.33;13.82;;;;;;;7.13;71.08;99903.50;2625129;54;20031;-69
2021/10/11 08:46:27;;;;;;;18.55;13.30;;;;;;;7.23;71.03;99889.53;2624242;47;20037;-69
2021/10/11 08:48:57;;;;;;;17.73;13.45;;;;;;;7.29;70.55;99892.38;2624355;47;20035;-69
2021/10/11 08:51:26;;;;;;;15.00;12.18;;;;;;;7.32;71.02;99910.50;2624185;54;20058;-69
2021/10/11 08:53:56;;;;;;;16.98;14.02;;;;;;;7.35;70.07;99897.06;2624196;54;20034;-67
2021/10/11 08:56:28;;;;;;;16.90;13.15;;;;;;;7.34;71.05;99898.03;2623473;54;20019;-71
2021/10/11 08:58:57;;;;;;;16.45;13.38;;;;;;;7.45;70.96;99911.00;2623716;54;20039;-68
2021/10/11 09:01:27;;;;;;;20.45;14.02;;;;;;;7.57;70.68;99908.19;2622981;51;20041;-67
2021/10/11 09:03:57;;;;;;;17.10;12.82;;;;;;;7.59;70.90;99903.59;2622224;54;20041;-67
2021/10/11 09:06:27;;;;;;;17.30;13.52;;;;;;;7.59;70.90;99919.38;2622130;54;20041;-69
2021/10/11 09:08:56;;;;;;;19.90;14.25;;;;;;;7.54;70.99;99916.38;2621411;54;20022;-69
2021/10/11 09:11:31;;;;;;;19.95;14.48;;;;;;;7.67;71.10;99916.84;2622265;54;20042;-68
2021/10/11 09:14:02;;;;;;;18.00;13.27;;;;;;;7.72;70.47;99911.16;2621663;54;20077;-69
2021/10/11 09:16:34;;;;;;;19.95;13.95;;;;;;;7.79;70.67;99905.13;2621711;54;20030;-68
2021/10/11 09:19:12;;;;;;;17.67;14.85;;;;;;;7.81;70.58;99919.00;2620457;54;20030;-68
2021/10/11 09:21:41;;;;;;;21.15;14.48;;;;;;;7.77;70.48;99914.19;2622136;47;20038;-68
2021/10/11 09:24:13;;;;;;;19.25;13.98;;;;;;;7.78;70.69;99921.91;2622586;54;20034;-68
2021/10/11 09:26:48;;;;;;;20.10;14.77;;;;;;;7.78;70.69;99905.28;2620950;54;20030;-69
2021/10/11 09:29:28;;;;;;;20.73;16.80;;;;;;;7.84;71.13;99895.03;2623258;54;20038;-70
2021/10/11 09:32:02;;;;;;;21.15;15.52;;;;;;;8.00;70.47;99890.88;2622895;54;20066;-70
2021/10/11 09:34:35;;;;;;;18.58;13.77;;;;;;;8.07;70.22;99886.66;2623389;47;20033;-69
2021/10/11 09:37:07;;;;;;;20.57;14.10;;;;;;;8.17;70.50;99888.25;2623240;39;20423;-70
2021/10/11 09:39:38;;;;;;;22.63;14.75;;;;;;;8.25;70.09;99882.25;2623291;54;20038;-69
2021/10/11 09:42:16;;;;;;;22.13;15.88;;;;;;;8.33;69.93;99887.59;2623686;54;20558;-70
2021/10/11 09:44:54;;;;;;;21.92;14.90;;;;;;;8.37;69.86;99888.97;2623336;54;20031;-69
2021/10/11 09:47:30;;;;;;;23.35;15.23;;;;;;;8.44;70.14;99895.28;2623484;54;20030;-69
2021/10/11 09:50:06;;;;;;;21.95;15.80;;;;;;;8.42;69.42;99893.78;2623513;54;20030;-69
2021/10/11 09:52:36;;;;;;;25.85;16.38;;;;;;;8.24;69.75;99898.19;2624090;54;20031;-70
2021/10/11 09:55:07;;;;;;;23.98;15.75;;;;;;;8.18;70.36;99903.09;2621712;47;20023;-69
2021/10/11 09:57:40;;;;;;;21.75;14.95;;;;;;;8.24;70.84;99914.81;2622684;54;20034;-69
2021/10/11 10:00:12;;;;;;;23.35;16.23;;;;;;;8.32;70.96;99914.88;2622974;54;20025;-68
2021/10/11 10:02:45;;;;;;;19.25;15.15;;;;;;;8.34;70.88;99912.13;2622930;54;20113;-68
2021/10/11 10:05:19;;;;;;;19.35;16.00;;;;;;;8.37;71.09;99919.75;2624448;54;20042;-68
2021/10/11 10:07:52;;;;;;;20.27;15.45;;;;;;;8.41;70.52;99910.56;2623047;54;20053;-68
2021/10/11 10:10:23;;;;;;;19.60;15.32;;;;;;;8.44;70.93;99910.25;2621319;54;20038;-68
2021/10/11 10:12:55;;;;;;;28.92;16.83;;;;;;;8.47;70.83;99907.31;2620704;47;20035;-68
2021/10/11 10:15:31;;;;;;;23.15;16.73;;;;;;;8.49;71.19;99907.16;2622128;54;20038;-68
2021/10/11 10:18:03;;;;;;;28.70;21.45;;;;;;;8.60;70.96;99902.47;2621805;47;20029;-69
2021/10/11 10:20:33;;;;;;;27.42;19.38;;;;;;;8.74;70.72;99895.84;2622364;54;20033;-69
2021/10/11 10:23:03;;;;;;;23.77;17.33;;;;;;;8.81;70.26;99899.50;2620002;54;20034;-69
2021/10/11 10:25:34;;;;;;;21.05;16.17;;;;;;;8.95;70.44;99892.84;2619212;39;20415;-70
2021/10/11 10:28:14;;;;;;;23.17;16.58;;;;;;;9.17;69.61;99879.13;2621730;54;20070;-69
2021/10/11 10:30:44;;;;;;;23.50;16.58;;;;;;;9.31;69.59;99884.81;2621890;54;20034;-69
2021/10/11 10:33:16;;;;;;;23.30;16.15;;;;;;;9.47;69.37;99870.81;2624125;39;20434;-69
2021/10/11 10:35:48;;;;;;;23.60;17.80;;;;;;;9.57;68.58;99875.00;2622696;54;20042;-70
2021/10/11 10:38:20;;;;;;;26.80;18.80;;;;;;;9.64;68.54;99869.91;2623679;54;20042;-70
2021/10/11 10:40:50;;;;;;;30.67;18.23;;;;;;;9.74;68.05;99869.78;2623661;54;20027;-69
2021/10/11 10:43:23;;;;;;;28.90;18.73;;;;;;;9.95;67.66;99871.97;2620752;54;20031;-70
2021/10/11 10:45:53;;;;;;;26.08;17.90;;;;;;;10.07;67.59;99871.47;2618235;54;20041;-70
2021/10/11 10:48:25;;;;;;;23.92;19.25;;;;;;;10.13;67.70;99877.94;2618584;54;20038;-70
2021/10/11 10:50:55;;;;;;;33.83;21.33;;;;;;;10.17;67.12;99881.91;2618318;54;20042;-70
2021/10/11 10:53:28;;;;;;;26.77;19.80;;;;;;;10.14;67.01;99872.50;2618448;54;20026;-69
2021/10/11 10:55:58;;;;;;;30.30;20.48;;;;;;;10.09;67.41;99869.53;2617633;54;20021;-70
2021/10/11 10:58:30;;;;;;;34.47;20.33;;;;;;;10.18;67.52;99870.34;2619441;54;20030;-71
2021/10/11 11:01:02;;;;;;;28.48;21.30;;;;;;;10.35;67.27;99868.56;2618536;39;20321;-71
2021/10/11 11:03:32;;;;;;;35.38;22.63;;;;;;;10.47;67.21;99859.31;2617889;46;20023;-71
2021/10/11 11:06:04;;;;;;;26.73;20.48;;;;;;;10.63;66.98;99867.25;2618636;54;20061;-71
2021/10/11 11:08:42;;;;;;;37.55;25.08;;;;;;;10.72;66.86;99860.13;2618933;54;20038;-71
2021/10/11 11:11:11;;;;;;;39.17;26.63;;;;;;;10.69;67.01;99860.44;2618308;54;20038;-71
2021/10/11 11:13:44;;;;;;;35.50;24.38;;;;;;;10.78;66.96;99867.41;2618235;54;20085;-70
2021/10/11 11:16:14;;;;;;;36.77;26.50;;;;;;;10.85;66.18;99864.88;2618836;54;20034;-70
2021/10/11 11:18:44;;;;;;;37.25;26.17;;;;;;;10.80;66.46;99862.75;2618854;31;20739;-70
2021/10/11 11:21:15;;;;;;;41.67;25.52;;;;;;;10.84;66.67;99861.41;2618185;54;20035;-70
2021/10/11 11:23:47;;;;;;;33.25;26.00;;;;;;;10.84;66.61;99858.78;2617896;54;20035;-70
2021/10/11 11:26:17;;;;;;;35.75;25.08;;;;;;;10.79;67.03;99858.47;2617995;54;20022;-70
2021/10/11 11:28:49;;;;;;;37.30;26.27;;;;;;;10.89;66.65;99851.16;2618566;54;20031;-71
2021/10/11 11:31:19;;;;;;;37.05;25.50;;;;;;;11.03;66.98;99854.13;2617579;47;20031;-71
2021/10/11 11:33:52;;;;;;;40.20;24.70;;;;;;;11.25;66.70;99848.06;2618296;54;20534;-70
2021/10/11 11:36:24;;;;;;;37.38;25.70;;;;;;;11.49;66.30;99848.97;2617892;47;20035;-71
2021/10/11 11:38:53;;;;;;;35.60;26.05;;;;;;;11.63;65.47;99837.63;2618083;47;20030;-71
2021/10/11 11:41:23;;;;;;;41.33;29.70;;;;;;;11.73;65.26;99826.84;2617679;54;20029;-69
2021/10/11 11:43:56;;;;;;;36.88;28.08;;;;;;;11.84;65.08;99826.47;2623152;54;20094;-70
2021/10/11 11:46:25;;;;;;;36.95;25.70;;;;;;;12.03;64.94;99833.09;2622996;54;20107;-69
2021/10/11 11:48:55;;;;;;;40.67;28.13;;;;;;;12.22;64.36;99830.00;2622332;54;20569;-70
2021/10/11 11:51:25;;;;;;;36.20;25.52;;;;;;;12.27;64.51;99824.97;2622933;54;20030;-69
2021/10/11 11:53:54;;;;;;;32.90;25.85;;;;;;;12.39;63.90;99823.53;2623227;54;20038;-70
2021/10/11 11:56:26;;;;;;;34.53;25.95;;;;;;;12.47;63.85;99820.00;2623085;54;20042;-71
2021/10/11 11:58:59;;;;;;;35.55;26.70;;;;;;;12.49;63.63;99817.16;2623082;54;20050;-71
2021/10/11 12:01:30;;;;;;;35.20;25.90;;;;;;;12.49;64.12;99825.97;2623220;54;20049;-71
2021/10/11 12:04:03;;;;;;;42.25;26.92;;;;;;;12.55;64.18;99819.91;2622588;54;20069;-71
2021/10/11 12:06:37;;;;;;;36.65;26.58;;;;;;;12.60;63.87;99817.53;2622877;54;20577;-70
2021/10/11 12:09:08;;;;;;;39.63;25.70;;;;;;;12.65;64.38;99814.34;2623053;54;20039;-70
2021/10/11 12:11:39;;;;;;;40.78;30.52;;;;;;;12.76;63.95;99816.56;2623070;54;20550;-72
2021/10/11 12:14:12;;;;;;;36.17;27.15;;;;;;;12.82;63.74;99817.69;2622894;47;20041;-71
2021/10/11 12:16:42;;;;;;;36.28;25.63;;;;;;;12.89;63.72;99822.03;2623208;54;20534;-70
2021/10/11 12:19:12;;;;;;;37.78;25.42;;;;;;;13.00;63.66;99814.66;2622910;47;20021;-71
2021/10/11 12:21:45;;;;;;;30.20;22.85;;;;;;;13.27;63.52;99813.22;2623382;54;20034;-68
2021/10/11 12:24:20;;;;;;;27.90;20.63;;;;;;;13.48;63.43;99807.13;2622283;47;20035;-70
2021/10/11 12:26:51;;;;;;;27.80;21.75;;;;;;;13.57;63.38;99806.00;2623212;54;20023;-69
2021/10/11 12:29:26;;;;;;;24.35;19.15;;;;;;;13.53;63.32;99800.22;2623143;54;20038;-68
2021/10/11 12:32:01;;;;;;;27.10;19.23;;;;;;;13.56;63.62;99802.50;2623240;54;20161;-69
2021/10/11 12:34:33;;;;;;;22.52;17.20;;;;;;;13.58;63.67;99799.66;2622783;54;20038;-71
2021/10/11 12:37:05;;;;;;;25.88;19.65;;;;;;;13.66;63.14;99794.22;2620615;54;20026;-72
2021/10/11 12:39:37;;;;;;;23.95;17.88;;;;;;;13.67;62.89;99790.56;2617516;47;20034;-71
2021/10/11 12:42:09;;;;;;;20.67;16.27;;;;;;;13.72;63.40;99801.47;2618180;54;20552;-72
2021/10/11 12:56:26;;;;;;;15.77;12.55;;;;;;;14.31;62.17;99797.69;2620271;47;20034;-66
2021/10/11 12:58:59;;;;;;;18.30;14.13;;;;;;;14.37;61.43;99789.78;2622469;39;20430;-67
2021/10/11 13:01:29;;;;;;;17.27;13.02;;;;;;;14.40;61.44;99791.22;2622068;54;20027;-67
2021/10/11 13:03:59;;;;;;;16.33;12.73;;;;;;;14.44;61.49;99792.47;2622056;54;20029;-67
2021/10/11 13:06:30;;;;;;;15.20;11.85;;;;;;;14.38;61.42;99782.63;2622457;54;20034;-67
2021/10/11 13:09:01;;;;;;;17.23;12.77;;;;;;;14.40;61.26;99783.22;2622615;54;20035;-66
2021/10/11 13:11:36;;;;;;;15.30;11.40;;;;;;;14.19;60.80;99789.41;2622202;54;20514;-65
2021/10/11 13:14:06;;;;;;;20.98;14.23;;;;;;;14.06;61.13;99790.13;2623418;39;20429;-66
2021/10/11 13:16:36;;;;;;;16.25;12.48;;;;;;;13.94;61.90;99786.34;2623252;54;20030;-66
2021/10/11 13:19:06;;;;;;;16.60;12.80;;;;;;;13.92;62.07;99788.38;2623191;47;20038;-66
2021/10/11 13:21:37;;;;;;;17.13;13.20;;;;;;;13.93;61.78;99783.88;2622988;54;20049;-68
2021/10/11 13:24:07;;;;;;;16.73;13.50;;;;;;;13.98;61.63;99784.13;2622837;54;20034;-64
2021/10/11 13:26:39;;;;;;;15.60;11.98;;;;;;;13.95;62.06;99785.31;2622865;54;20568;-67
2021/10/11 13:29:22;;;;;;;16.48;13.27;;;;;;;13.94;61.59;99774.88;2623261;54;20034;-68
2021/10/11 14:26:31;;;;;;;19.85;12.73;;;;;;;13.68;63.29;99765.66;2621543;52;20026;-67
2021/10/11 14:29:04;;;;;;;16.90;12.13;;;;;;;13.71;63.40;99770.56;2622490;39;20414;-66
2021/10/11 14:31:47;;;;;;;17.35;11.57;;;;;;;13.69;63.35;99761.97;2623055;47;20038;-65
2021/10/11 14:34:38;;;;;;;15.85;11.65;;;;;;;13.62;62.75;99763.72;2623123;54;20034;-66
2021/10/11 15:59:09;;;;;;;21.80;14.63;;;;;;;12.88;67.12;99751.41;2618370;54;20034;-65
2021/10/11 16:01:50;;;;;;;21.25;14.80;;;;;;;12.87;67.89;99763.03;2618743;46;20046;-64
2021/10/11 16:04:20;;;;;;;22.50;15.10;;;;;;;12.93;67.36;99758.00;2618323;54;20034;-64
2021/10/11 16:06:50;;;;;;;21.75;14.23;;;;;;;12.93;67.66;99766.78;2618370;54;20026;-63
2021/10/11 16:09:22;;;;;;;22.05;14.80;;;;;;;12.91;67.74;99757.38;2618111;54;20037;-63
2021/10/11 16:11:52;;;;;;;21.63;15.23;;;;;;;12.85;67.88;99759.72;2617693;47;20529;-63
2021/10/11 16:14:23;;;;;;;26.00;15.75;;;;;;;12.81;67.67;99760.28;2618768;39;20442;-65
2021/10/11 16:16:53;;;;;;;23.77;16.95;;;;;;;12.77;68.10;99762.47;2618166;47;20538;-65
2021/10/11 16:19:23;;;;;;;24.02;17.33;;;;;;;12.74;68.35;99759.38;2619486;54;20035;-65
2021/10/11 16:21:53;;;;;;;22.35;15.45;;;;;;;12.69;68.28;99762.56;2618946;54;20066;-65
2021/10/11 16:24:25;;;;;;;21.92;17.02;;;;;;;12.67;68.54;99761.13;2618622;54;20037;-65
2021/10/11 16:26:55;;;;;;;27.98;17.55;;;;;;;12.61;68.29;99757.34;2617296;47;20027;-65
2021/10/11 16:29:25;;;;;;;25.50;17.20;;;;;;;12.55;69.08;99755.44;2617841;39;20403;-65
2021/10/11 16:31:54;;;;;;;27.13;18.08;;;;;;;12.49;69.19;99753.50;2617350;54;20037;-65
2021/10/11 16:34:25;;;;;;;26.65;18.42;;;;;;;12.44;69.00;99755.88;2617638;54;20041;-65
2021/10/11 16:36:55;;;;;;;29.80;19.50;;;;;;;12.42;69.41;99755.25;2617804;54;20046;-64
2021/10/11 16:39:27;;;;;;;27.50;18.63;;;;;;;12.38;69.47;99765.41;2618292;54;20038;-64
2021/10/11 16:41:57;;;;;;;30.90;20.10;;;;;;;12.34;69.75;99766.75;2618686;54;20025;-64
2021/10/11 16:44:27;;;;;;;39.42;27.33;;;;;;;12.24;70.22;99771.47;2619037;54;20554;-64
2021/10/11 16:46:56;;;;;;;35.00;22.52;;;;;;;12.18;70.08;99766.91;2619428;39;20419;-64
2021/10/11 16:49:26;;;;;;;32.78;21.55;;;;;;;12.16;70.51;99769.72;2618957;54;20034;-64
2021/10/11 16:51:56;;;;;;;31.50;22.40;;;;;;;12.11;70.20;99775.56;2618983;54;20026;-64
2021/10/11 16:54:32;;;;;;;32.75;20.58;;;;;;;12.03;70.74;99774.81;2619773;31;20526;-64
2021/10/11 16:57:02;;;;;;;40.35;24.40;;;;;;;11.98;70.93;99777.19;2619090;54;20030;-64
2021/10/11 16:59:32;;;;;;;30.88;19.10;;;;;;;11.84;71.41;99776.13;2620617;54;20031;-65
2021/10/11 17:02:02;;;;;;;24.27;17.75;;;;;;;11.77;71.87;99777.81;2622309;54;20561;-65
2021/10/11 17:04:32;;;;;;;24.77;17.75;;;;;;;11.74;71.52;99789.56;2622485;54;20529;-64
2021/10/11 17:07:02;;;;;;;29.38;19.63;;;;;;;11.71;72.04;99786.44;2622115;46;20027;-64
2021/10/11 17:09:34;;;;;;;27.20;19.17;;;;;;;11.65;72.42;99788.78;2621894;54;20034;-64
2021/10/11 17:12:04;;;;;;;29.98;20.35;;;;;;;11.62;72.48;99789.13;2621923;54;20022;-65
2021/10/11 17:14:34;;;;;;;31.40;20.67;;;;;;;11.61;72.31;99784.03;2622741;54;20038;-64
2021/10/11 17:17:03;;;;;;;30.92;19.65;;;;;;;11.62;72.40;99793.63;2622907;54;20569;-64
2021/10/11 17:19:33;;;;;;;29.40;21.08;;;;;;;11.56;72.72;99794.31;2622628;54;20572;-64
2021/10/11 17:22:03;;;;;;;31.73;21.27;;;;;;;11.57;72.61;99793.31;2622650;54;20534;-64
2021/10/11 17:24:35;;;;;;;29.50;19.35;;;;;;;11.56;73.13;99794.31;2622567;54;20035;-64
2021/10/11 17:27:05;;;;;;;29.45;20.30;;;;;;;11.54;72.70;99788.38;2622881;54;20050;-64
2021/10/11 17:29:35;;;;;;;29.08;19.88;;;;;;;11.52;72.93;99787.72;2622526;54;20036;-64
2021/10/11 17:32:07;;;;;;;26.60;19.77;;;;;;;11.47;73.37;99790.06;2622483;54;20031;-65
2021/10/11 17:34:37;;;;;;;25.75;19.55;;;;;;;11.47;72.93;99785.59;2623342;54;20033;-65
2021/10/11 17:37:07;;;;;;;29.23;20.40;;;;;;;11.45;72.93;99784.13;2621987;51;20545;-65
2021/10/11 17:39:39;;;;;;;39.92;35.53;;;;;;;11.44;73.09;99793.06;2621473;54;20034;-65
2021/10/11 17:42:09;;;;;;;36.25;29.10;;;;;;;11.43;73.10;99792.25;2621944;54;20030;-65
2021/10/11 17:44:39;;;;;;;30.90;23.08;;;;;;;11.33;73.36;99792.44;2622528;54;20031;-65
2021/10/11 17:47:10;;;;;;;32.72;22.30;;;;;;;11.24;73.55;99797.97;2621553;47;20034;-65
2021/10/11 17:49:45;;;;;;;35.67;21.80;;;;;;;11.14;73.37;99795.50;2622117;54;20037;-66
2021/10/11 17:52:15;;;;;;;32.67;20.92;;;;;;;11.03;73.57;99796.72;2621801;47;20034;-65
2021/10/11 17:54:47;;;;;;;28.90;19.30;;;;;;;10.93;74.03;99797.91;2623428;54;20034;-66
2021/10/11 17:57:18;;;;;;;37.90;22.42;;;;;;;10.90;74.29;99785.88;2622939;54;20042;-66
2021/10/11 17:59:47;;;;;;;31.40;21.38;;;;;;;10.88;74.22;99793.13;2622849;54;20026;-67
2021/10/11 18:02:17;;;;;;;33.78;20.77;;;;;;;10.91;74.09;99806.03;2622435;54;20045;-65
2021/10/11 18:04:47;;;;;;;31.88;20.20;;;;;;;10.89;73.99;99798.25;2622247;54;20039;-64
2021/10/11 18:07:16;;;;;;;29.20;19.88;;;;;;;10.88;73.89;99804.53;2622099;54;20068;-64
2021/10/11 18:09:49;;;;;;;32.55;22.60;;;;;;;10.80;74.18;99812.50;2618825;54;20034;-65
2021/10/11 18:12:18;;;;;;;30.02;19.92;;;;;;;10.72;74.71;99812.50;2617953;54;20019;-64
2021/10/11 18:14:48;;;;;;;26.00;17.77;;;;;;;10.72;74.75;99816.97;2620651;54;20023;-64
2021/10/11 18:17:18;;;;;;;30.27;21.05;;;;;;;10.71;74.58;99810.88;2620565;47;20062;-65
2021/10/11 18:19:47;;;;;;;28.98;20.15;;;;;;;10.70;74.20;99801.28;2623052;39;20430;-65
2021/10/11 18:22:17;;;;;;;29.42;21.10;;;;;;;10.65;74.35;99812.38;2620562;47;20561;-64
2021/10/11 18:24:49;;;;;;;33.38;23.42;;;;;;;10.61;74.15;99807.56;2620760;54;20026;-64
2021/10/11 18:27:19;;;;;;;65.93;42.35;;;;;;;10.58;74.47;99803.47;2619926;47;20597;-64
2021/10/11 18:29:49;;;;;;;59.28;35.60;;;;;;;10.56;74.54;99809.91;2619627;54;20029;-64
2021/10/11 18:32:18;;;;;;;46.00;26.92;;;;;;;10.44;74.61;99803.31;2619057;39;20410;-64
2021/10/11 18:34:48;;;;;;;47.92;25.73;;;;;;;10.34;74.56;99808.78;2619493;39;20438;-64
2021/10/11 18:37:18;;;;;;;41.70;23.95;;;;;;;10.26;75.22;99812.25;2619054;54;20035;-64
2021/10/11 18:39:54;;;;;;;38.00;26.15;;;;;;;10.21;74.75;99809.25;2618906;54;20042;-65
2021/10/11 18:42:24;;;;;;;36.42;24.88;;;;;;;10.11;75.05;99813.88;2620180;54;20040;-64
2021/10/11 18:44:54;;;;;;;32.22;21.75;;;;;;;10.01;75.66;99813.22;2621727;54;20034;-64
2021/10/11 18:47:25;;;;;;;34.38;23.35;;;;;;;10.03;76.07;99806.75;2621684;54;20034;-65
2021/10/11 18:49:55;;;;;;;31.83;22.05;;;;;;;10.04;75.87;99807.56;2621447;46;20045;-64
2021/10/11 18:52:24;;;;;;;31.33;23.00;;;;;;;10.01;75.62;99813.22;2620264;47;20558;-64
2021/10/11 18:55:19;;;;;;;39.25;25.40;;;;;;;9.90;76.24;99809.88;2620437;54;20038;-65
2021/10/11 18:57:49;;;;;;;51.95;31.45;;;;;;;9.94;76.00;99820.94;2619701;54;20029;-65
2021/10/11 19:00:21;;;;;;;35.00;23.40;;;;;;;9.88;75.71;99822.44;2618327;47;20034;-65
2021/10/11 19:02:51;;;;;;;30.33;21.15;;;;;;;9.86;76.15;99828.88;2618280;54;20133;-64
2021/10/11 19:05:21;;;;;;;27.83;20.13;;;;;;;9.87;75.89;99826.06;2619046;54;20041;-64
2021/10/11 19:07:51;;;;;;;30.75;20.17;;;;;;;9.90;75.53;99824.91;2619121;54;20042;-65
2021/10/11 19:10:23;;;;;;;28.70;20.10;;;;;;;9.90;75.67;99827.56;2619194;39;20514;-65
2021/10/11 19:12:53;;;;;;;32.53;22.50;;;;;;;9.88;75.56;99829.53;2618929;54;20030;-65
2021/10/11 19:15:25;;;;;;;32.67;21.73;;;;;;;9.72;75.92;99827.69;2619587;54;20034;-65
2021/10/11 19:17:55;;;;;;;39.08;23.70;;;;;;;9.68;76.21;99821.09;2619315;54;20038;-65
2021/10/11 19:20:24;;;;;;;32.85;23.73;;;;;;;9.62;75.76;99813.78;2619117;54;20041;-65
2021/10/11 19:22:54;;;;;;;32.42;21.48;;;;;;;9.57;76.33;99811.66;2619328;46;20053;-65
2021/10/11 19:25:26;;;;;;;33.90;23.65;;;;;;;9.55;76.20;99820.69;2619728;54;20057;-65
2021/10/11 19:27:59;;;;;;;30.13;21.77;;;;;;;9.58;76.11;99815.09;2619605;54;20041;-65
2021/10/11 19:30:29;;;;;;;30.10;20.80;;;;;;;9.54;76.17;99813.78;2619945;39;20431;-65
2021/10/11 19:33:01;;;;;;;30.88;21.27;;;;;;;9.53;75.86;99806.84;2619208;54;20820;-65
2021/10/11 19:35:30;;;;;;;39.67;24.73;;;;;;;9.53;76.04;99820.88;2618664;54;20066;-65
2021/10/11 19:38:00;;;;;;;28.42;21.33;;;;;;;9.51;75.67;99816.72;2619239;54;20034;-65
2021/10/11 19:40:32;;;;;;;30.08;20.30;;;;;;;9.47;75.94;99820.69;2618104;47;20106;-65
2021/10/11 19:43:02;;;;;;;30.95;20.45;;;;;;;9.44;76.09;99813.94;2618584;54;20027;-65
2021/10/11 19:45:32;;;;;;;29.65;21.20;;;;;;;9.42;75.76;99806.16;2618860;54;20039;-65
2021/10/11 19:48:04;;;;;;;29.88;21.90;;;;;;;9.38;75.82;99811.91;2618454;54;20051;-65
2021/10/11 19:50:34;;;;;;;34.83;23.67;;;;;;;9.31;75.45;99809.09;2619533;54;20042;-64
2021/10/11 19:53:06;;;;;;;32.15;21.95;;;;;;;9.27;75.73;99817.50;2619163;54;20038;-63
2021/10/11 19:55:41;;;;;;;31.63;22.67;;;;;;;9.27;75.84;99810.41;2618618;54;20038;-64
2021/10/11 19:58:11;;;;;;;30.70;22.63;;;;;;;9.22;76.02;99817.13;2618857;54;20037;-64
2021/10/11 20:00:41;;;;;;;32.90;21.40;;;;;;;9.21;75.72;99818.13;2618703;54;20031;-64
2021/10/11 20:03:11;;;;;;;30.13;23.10;;;;;;;9.23;75.83;99818.81;2618933;54;20030;-64
2021/10/11 20:05:41;;;;;;;32.10;22.05;;;;;;;9.21;75.88;99816.31;2618493;54;20030;-64
2021/10/11 20:08:10;;;;;;;30.02;22.23;;;;;;;9.17;75.92;99822.88;2617745;54;20038;-64
2021/10/11 20:10:43;;;;;;;31.60;22.75;;;;;;;9.11;76.29;99821.72;2618001;54;20031;-64
2021/10/11 20:13:13;;;;;;;29.00;21.77;;;;;;;9.07;76.20;99822.19;2618256;54;20018;-64
2021/10/11 20:15:43;;;;;;;30.63;20.90;;;;;;;8.99;76.19;99815.06;2618056;54;20154;-64
2021/10/11 20:18:13;;;;;;;35.03;24.27;;;;;;;8.96;75.73;99817.19;2617975;39;20507;-64
2021/10/11 20:20:45;;;;;;;29.98;21.50;;;;;;;8.85;75.81;99803.28;2617539;47;20137;-64
2021/10/11 20:23:14;;;;;;;32.03;21.05;;;;;;;8.82;75.94;99806.25;2618594;39;20120;-64
2021/10/11 20:25:47;;;;;;;32.33;21.90;;;;;;;8.77;75.78;99811.16;2617569;54;20042;-64
2021/10/11 20:28:16;;;;;;;30.85;21.45;;;;;;;8.67;76.39;99808.63;2618162;54;20034;-64
2021/10/11 20:30:46;;;;;;;31.30;22.05;;;;;;;8.60;76.34;99809.41;2618132;54;20030;-64
2021/10/11 20:33:15;;;;;;;31.23;22.00;;;;;;;8.61;76.57;99804.00;2617478;54;20026;-63
2021/10/11 20:35:45;;;;;;;26.35;20.77;;;;;;;8.53;76.09;99806.59;2617960;54;20053;-64
2021/10/11 20:38:15;;;;;;;31.65;22.42;;;;;;;8.53;76.50;99803.94;2618129;39;20442;-64
2021/10/11 20:40:48;;;;;;;32.22;23.13;;;;;;;8.53;76.42;99803.94;2617781;54;20126;-64
2021/10/11 20:43:19;;;;;;;30.80;21.08;;;;;;;8.47;76.89;99801.91;2619068;54;20030;-64
2021/10/11 20:45:49;;;;;;;31.15;22.50;;;;;;;8.53;76.78;99803.09;2619683;39;20457;-64
2021/10/11 20:48:18;;;;;;;28.90;21.20;;;;;;;8.49;76.25;99807.03;2618300;47;20117;-64
2021/10/11 20:50:48;;;;;;;31.25;23.35;;;;;;;8.44;76.38;99804.84;2617438;39;20430;-64
2021/10/11 20:53:18;;;;;;;30.90;20.02;;;;;;;8.37;76.63;99807.28;2617841;54;20042;-64
2021/10/11 20:55:50;;;;;;;25.52;20.77;;;;;;;8.33;76.79;99802.47;2617729;54;20554;-64
2021/10/11 20:58:20;;;;;;;28.80;20.88;;;;;;;8.30;77.09;99798.31;2618158;39;20441;-64
2021/10/11 21:00:49;;;;;;;26.77;19.92;;;;;;;8.29;76.56;99799.31;2617922;39;20445;-64
2021/10/11 21:03:20;;;;;;;23.50;18.00;;;;;;;8.23;76.88;99794.63;2618259;39;20689;-64